Weather at Campo di Volo "Butterfly 2"

Public forecast

Using degrees Celsius for public forecast. Weather courtesy of forecast.io.

Closest aviation weather report (METAR) to Campo di Volo "Butterfly 2"

Report is more than 6 hours old.

Closest report is Aviano Air Base, 12.2 nm (22.6 km) NNE. Retrieved 2021/06/18 17:55 UTC (1 day ago):

LIPA 181755Z 21005KT 9999 SCT070 27/19 Q1016 RMK SCT VIS MIN 9999 WIND THR05 /////KT WIND THR23 /////KT A3002 BLU

Closest aviation forecast (TAF) to Campo di Volo "Butterfly 2"

Forecast is more than 12 hours old.

Closest forecast is Aviano Air Base, 12.2 nm (22.6 km) NNE. Retrieved 2015/11/03 12:24 UTC (6 years ago):

TAF TAF LIPA 031100Z 0312/0324 VRB03KT CAVOK